Time;durP1;ratioP1;P1;durP2;ratioP2;P2;SDS_P1;SDS_P2;PMS_P1;PMS_P2;Temp;Humidity;BMP_temperature;BMP_pressure;BME280_temperature;BME280_humidity;BME280_pressure;Samples;Min_cycle;Max_cycle;Signal;HPM_P1;HPM_P2
2023/09/29 00:00:17;;;;;;;4.20;3.77;;;;;;;17.02;nan;99725.91;4928739;29;20458;-80
2023/09/29 00:02:44;;;;;;;7.87;4.50;;;;;;;16.98;nan;99723.66;4929197;29;20229;-80
2023/09/29 00:05:10;;;;;;;6.57;5.40;;;;;;;16.90;nan;99729.66;4930958;28;20433;-80
2023/09/29 00:07:37;;;;;;;7.63;5.10;;;;;;;16.85;nan;99723.94;4929215;29;20436;-79
2023/09/29 00:10:08;;;;;;;7.37;5.30;;;;;;;16.79;nan;99725.28;4931134;29;20197;-79
2023/09/29 00:12:37;;;;;;;7.23;4.60;;;;;;;16.74;nan;99730.16;4930070;29;20490;-79
2023/09/29 00:15:04;;;;;;;5.47;4.70;;;;;;;16.70;nan;99726.06;4929484;28;20457;-80
2023/09/29 00:17:30;;;;;;;6.23;4.60;;;;;;;16.67;nan;99725.50;4929926;28;20473;-79
2023/09/29 00:19:55;;;;;;;10.93;4.90;;;;;;;16.66;nan;99713.19;4929806;28;20540;-80
2023/09/29 00:22:21;;;;;;;6.47;4.53;;;;;;;16.66;nan;99715.84;4929742;28;20544;-79
2023/09/29 00:24:49;;;;;;;5.83;4.50;;;;;;;16.63;nan;99719.59;4928004;29;20562;-79
2023/09/29 00:27:15;;;;;;;5.93;5.43;;;;;;;16.63;nan;99721.41;4927842;29;20705;-80
2023/09/29 00:29:40;;;;;;;4.93;4.30;;;;;;;16.60;nan;99726.00;4929769;29;20454;-79
2023/09/29 00:32:05;;;;;;;8.23;4.50;;;;;;;16.55;nan;99719.44;4931068;29;20666;-80
2023/09/29 00:34:31;;;;;;;6.90;4.53;;;;;;;16.50;nan;99721.63;4942139;28;20602;-79
2023/09/29 00:36:59;;;;;;;4.50;3.73;;;;;;;16.50;nan;99724.28;4925888;29;20204;-79
2023/09/29 00:39:24;;;;;;;4.33;3.93;;;;;;;16.50;nan;99727.81;4925321;29;21038;-79
2023/09/29 00:41:50;;;;;;;5.60;4.57;;;;;;;16.50;nan;99727.81;4927742;28;20220;-79
2023/09/29 00:44:16;;;;;;;6.40;4.07;;;;;;;16.50;nan;99734.91;4943521;28;20617;-79
2023/09/29 00:46:42;;;;;;;5.10;4.30;;;;;;;16.48;nan;99732.41;4927240;29;20213;-79
2023/09/29 00:49:08;;;;;;;7.93;5.00;;;;;;;16.44;nan;99733.63;4926894;29;20192;-79
2023/09/29 00:51:35;;;;;;;4.30;3.80;;;;;;;16.40;nan;99728.72;4928053;28;20436;-79
2023/09/29 00:54:08;;;;;;;6.47;3.63;;;;;;;16.31;nan;99723.25;4930728;29;20451;-79
2023/09/29 00:56:38;;;;;;;4.50;3.80;;;;;;;16.22;nan;99718.72;4942125;28;20881;-79
2023/09/29 00:59:06;;;;;;;6.63;4.70;;;;;;;16.17;nan;99712.13;4929787;28;20456;-79
2023/09/29 01:01:34;;;;;;;5.60;4.50;;;;;;;16.18;nan;99716.47;4931765;29;20484;-79
2023/09/29 01:04:00;;;;;;;8.20;4.60;;;;;;;16.19;nan;99711.03;4945583;28;20444;-80
2023/09/29 01:06:29;;;;;;;5.00;4.43;;;;;;;16.18;nan;99716.47;4928855;29;21056;-79
2023/09/29 01:08:56;;;;;;;7.57;4.75;;;;;;;16.17;nan;99710.31;4926516;29;20286;-79
2023/09/29 01:11:22;;;;;;;10.93;4.90;;;;;;;16.19;nan;99712.84;4930824;29;20207;-79
2023/09/29 01:13:48;;;;;;;5.78;4.35;;;;;;;16.20;nan;99711.88;4928892;29;20338;-79
2023/09/29 01:16:13;;;;;;;6.00;4.43;;;;;;;16.22;nan;99712.59;4928402;29;20224;-80
2023/09/29 01:18:41;;;;;;;5.53;4.18;;;;;;;16.23;nan;99708.94;4925395;29;20223;-79
2023/09/29 01:21:06;;;;;;;5.85;4.25;;;;;;;16.23;nan;99707.16;4924956;29;20216;-79
2023/09/29 01:23:35;;;;;;;6.03;4.20;;;;;;;16.22;nan;99709.94;4946513;28;20226;-79
2023/09/29 01:26:05;;;;;;;4.70;4.20;;;;;;;16.22;nan;99709.94;4927236;29;20206;-79
2023/09/29 01:28:30;;;;;;;8.27;5.60;;;;;;;16.22;nan;99699.34;4928152;29;20212;-80
2023/09/29 01:30:56;;;;;;;6.90;4.57;;;;;;;16.22;nan;99708.13;4930030;29;20240;-79
2023/09/29 01:33:21;;;;;;;5.30;4.57;;;;;;;16.23;nan;99708.94;4931943;29;20213;-79
2023/09/29 01:35:48;;;;;;;5.80;4.70;;;;;;;16.23;nan;99704.50;4932499;28;20401;-80
2023/09/29 01:38:14;;;;;;;7.22;5.00;;;;;;;16.22;nan;99699.34;4929838;29;20231;-79
2023/09/29 01:40:40;;;;;;;5.10;3.73;;;;;;;16.19;nan;99696.94;4931344;29;20231;-79
2023/09/29 01:43:06;;;;;;;5.30;4.43;;;;;;;16.15;nan;99697.22;4932543;29;20488;-79
2023/09/29 01:45:32;;;;;;;3.90;3.50;;;;;;;16.13;nan;99691.19;4928286;29;20255;-79
2023/09/29 01:48:00;;;;;;;6.55;4.97;;;;;;;16.06;nan;99694.50;4947701;28;20231;-80
2023/09/29 01:50:26;;;;;;;5.18;4.30;;;;;;;16.02;nan;99683.34;4930046;29;20207;-79
2023/09/29 01:52:52;;;;;;;5.47;4.07;;;;;;;15.98;nan;99691.66;4929576;29;20215;-80
2023/09/29 01:55:20;;;;;;;6.50;5.20;;;;;;;15.93;nan;99687.59;4934071;29;20278;-80
2023/09/29 01:57:49;;;;;;;6.32;4.90;;;;;;;15.91;nan;99696.66;4930420;29;20211;-80
2023/09/29 02:00:35;;;;;;;7.65;4.60;;;;;;;15.84;nan;99691.00;4931629;29;20599;-80
2023/09/29 02:03:03;;;;;;;7.95;5.05;;;;;;;15.79;nan;99689.72;4929006;29;20225;-80
2023/09/29 02:05:28;;;;;;;7.35;5.07;;;;;;;15.78;nan;99685.41;4929260;28;20297;-80
2023/09/29 02:07:54;;;;;;;6.30;4.83;;;;;;;15.80;nan;99686.13;4931889;28;20907;-80
2023/09/29 02:10:21;;;;;;;4.20;3.50;;;;;;;15.82;nan;99687.66;4929765;29;20210;-80
2023/09/29 02:12:56;;;;;;;5.10;4.60;;;;;;;15.85;nan;99694.50;4929765;29;20218;-80
2023/09/29 02:15:21;;;;;;;6.40;4.80;;;;;;;15.87;nan;99692.56;4930359;28;20202;-80
2023/09/29 02:17:50;;;;;;;6.77;5.03;;;;;;;15.88;nan;99686.31;4929672;29;20651;-80
2023/09/29 02:20:21;;;;;;;5.80;4.38;;;;;;;15.88;nan;99694.25;4928419;29;20210;-80
2023/09/29 02:22:48;;;;;;;5.68;4.15;;;;;;;15.87;nan;99685.44;4928877;29;20218;-79
2023/09/29 02:25:16;;;;;;;7.15;4.18;;;;;;;15.85;nan;99686.56;4935337;28;20198;-80
2023/09/29 02:27:43;;;;;;;5.93;4.72;;;;;;;15.81;nan;99685.16;4934500;28;20281;-80
2023/09/29 02:30:10;;;;;;;5.28;4.75;;;;;;;15.75;nan;99675.06;4928733;28;20477;-80
2023/09/29 02:32:41;;;;;;;9.25;6.00;;;;;;;15.62;nan;99676.06;4932648;29;20209;-80
2023/09/29 02:35:11;;;;;;;6.03;4.22;;;;;;;15.55;nan;99669.59;4930976;29;20703;-79
2023/09/29 02:37:37;;;;;;;6.80;5.85;;;;;;;15.57;nan;99672.94;4928669;29;21569;-80
2023/09/29 02:40:05;;;;;;;7.18;5.55;;;;;;;15.59;nan;99681.63;4928869;29;20201;-80
2023/09/29 02:42:31;;;;;;;6.65;5.03;;;;;;;15.59;nan;99686.06;4930496;29;20770;-80
2023/09/29 02:44:57;;;;;;;6.80;4.60;;;;;;;15.59;nan;99689.56;4930575;29;20242;-80
2023/09/29 02:47:23;;;;;;;6.82;4.30;;;;;;;15.59;nan;99692.22;4943891;28;20193;-80
2023/09/29 02:49:48;;;;;;;4.80;4.30;;;;;;;15.58;nan;99694.97;4927340;28;20394;-80
2023/09/29 02:52:14;;;;;;;4.37;4.00;;;;;;;15.60;nan;99704.47;4931288;29;20206;-80
2023/09/29 02:54:41;;;;;;;6.25;4.70;;;;;;;15.63;nan;99698.06;4930108;29;20700;-80
2023/09/29 02:57:07;;;;;;;5.43;4.43;;;;;;;15.64;nan;99695.31;4927923;29;20198;-80
2023/09/29 02:59:33;;;;;;;8.50;4.45;;;;;;;15.66;nan;99696.03;4933188;29;20446;-80
2023/09/29 03:02:01;;;;;;;7.28;5.85;;;;;;;15.69;nan;99694.97;4931773;29;20217;-80
2023/09/29 03:04:26;;;;;;;7.93;4.68;;;;;;;15.70;nan;99694.81;4926621;29;20217;-80
2023/09/29 03:06:52;;;;;;;5.97;5.23;;;;;;;15.71;nan;99693.00;4929694;29;20945;-80
2023/09/29 03:09:19;;;;;;;5.20;4.67;;;;;;;15.72;nan;99702.66;4930709;29;20212;-79
2023/09/29 03:11:45;;;;;;;5.22;3.60;;;;;;;15.70;nan;99697.47;4929159;29;20203;-80
2023/09/29 03:14:11;;;;;;;10.23;4.60;;;;;;;15.70;nan;99708.06;4944485;28;20240;-80
2023/09/29 03:16:37;;;;;;;7.38;4.35;;;;;;;15.68;nan;99696.75;4933042;29;20194;-80
2023/09/29 03:19:08;;;;;;;5.87;4.70;;;;;;;15.66;nan;99711.91;4932624;29;20628;-80
2023/09/29 03:21:34;;;;;;;6.82;4.97;;;;;;;15.65;nan;99706.75;4928477;29;20674;-79
2023/09/29 03:24:01;;;;;;;4.53;3.97;;;;;;;15.59;nan;99708.09;4927346;29;20202;-80
2023/09/29 03:26:27;;;;;;;6.50;5.15;;;;;;;15.54;nan;99709.44;4928911;29;20208;-80
2023/09/29 03:28:54;;;;;;;5.45;4.80;;;;;;;15.45;nan;99705.75;4931654;29;20582;-80
2023/09/29 03:31:22;;;;;;;4.93;4.03;;;;;;;15.39;nan;99708.88;4931532;29;20206;-79
2023/09/29 03:33:48;;;;;;;9.02;5.47;;;;;;;15.39;nan;99706.22;4928880;28;20834;-80
2023/09/29 03:36:14;;;;;;;8.37;5.23;;;;;;;15.40;nan;99707.94;4931985;29;20229;-80
2023/09/29 03:38:41;;;;;;;5.93;4.32;;;;;;;15.42;nan;99713.94;4929174;28;20549;-80
2023/09/29 03:41:09;;;;;;;5.20;4.70;;;;;;;15.42;nan;99713.94;4931725;29;20428;-80
2023/09/29 03:43:34;;;;;;;9.98;5.60;;;;;;;15.36;nan;99722.38;4928679;29;20676;-80
2023/09/29 03:46:00;;;;;;;6.13;5.13;;;;;;;15.27;nan;99730.09;4931596;29;20202;-80
2023/09/29 03:48:25;;;;;;;7.40;5.00;;;;;;;15.26;nan;99722.28;4929425;29;20198;-80
2023/09/29 03:50:53;;;;;;;5.87;4.20;;;;;;;15.26;nan;99731.06;4930141;28;20309;-80
2023/09/29 03:53:19;;;;;;;5.57;3.78;;;;;;;15.30;nan;99729.00;4932363;28;20225;-79
2023/09/29 03:55:44;;;;;;;15.57;4.63;;;;;;;15.33;nan;99736.69;4929324;29;20206;-80
2023/09/29 03:58:10;;;;;;;9.60;6.47;;;;;;;15.34;nan;99724.28;4931795;28;20197;-79
2023/09/29 04:00:36;;;;;;;5.50;4.60;;;;;;;15.34;nan;99737.53;4928275;29;20429;-80
2023/09/29 04:03:01;;;;;;;6.87;4.87;;;;;;;15.35;nan;99734.78;4929722;29;20218;-80
2023/09/29 04:05:27;;;;;;;4.53;4.13;;;;;;;15.39;nan;99722.13;4929895;28;20198;-80
2023/09/29 04:07:53;;;;;;;5.50;4.90;;;;;;;15.41;nan;99720.19;4930233;28;20779;-80
2023/09/29 04:10:20;;;;;;;9.43;4.70;;;;;;;15.41;nan;99723.66;4928087;29;20229;-80
2023/09/29 04:12:47;;;;;;;7.00;4.65;;;;;;;15.38;nan;99721.28;4927568;28;20680;-80
2023/09/29 04:15:13;;;;;;;5.10;4.40;;;;;;;15.35;nan;99726.81;5039131;22;20225;-77
2023/09/29 04:17:39;;;;;;;7.63;4.70;;;;;;;15.36;nan;99735.59;5020734;28;20243;-77
2023/09/29 04:20:05;;;;;;;5.28;4.00;;;;;;;15.35;nan;99736.59;5035038;28;20525;-77
2023/09/29 04:22:32;;;;;;;6.40;3.60;;;;;;;15.34;nan;99740.16;5037680;28;20249;-77
2023/09/29 04:24:57;;;;;;;5.55;4.15;;;;;;;15.31;nan;99736.00;5033895;28;20217;-77
2023/09/29 04:27:23;;;;;;;5.43;4.40;;;;;;;15.30;nan;99730.81;5033039;28;20867;-77
2023/09/29 04:29:49;;;;;;;8.40;4.60;;;;;;;15.27;nan;99732.75;5031987;28;20265;-77
2023/09/29 04:32:15;;;;;;;5.70;4.18;;;;;;;15.25;nan;99741.78;5032142;28;20512;-78
2023/09/29 04:34:40;;;;;;;6.90;4.57;;;;;;;15.25;nan;99750.53;5031737;28;20293;-79
2023/09/29 04:37:06;;;;;;;6.60;5.30;;;;;;;15.29;nan;99753.81;5027871;28;20433;-76
2023/09/29 04:39:31;;;;;;;5.03;4.53;;;;;;;15.30;nan;99750.19;5038474;28;20464;-77
2023/09/29 04:41:57;;;;;;;4.97;3.80;;;;;;;15.27;nan;99745.97;5037958;28;20223;-77
2023/09/29 04:44:23;;;;;;;11.17;6.97;;;;;;;15.24;nan;99745.38;5035266;28;20210;-77
2023/09/29 04:46:48;;;;;;;7.00;5.93;;;;;;;15.21;nan;99749.13;5037100;28;20224;-77
2023/09/29 04:49:13;;;;;;;7.80;5.87;;;;;;;15.22;nan;99748.16;5031723;28;20535;-78
2023/09/29 04:51:39;;;;;;;6.03;4.00;;;;;;;15.22;nan;99745.50;5029055;28;20202;-77
2023/09/29 04:54:04;;;;;;;5.70;4.20;;;;;;;15.19;nan;99747.56;5024079;28;20231;-78
2023/09/29 04:56:31;;;;;;;6.17;3.70;;;;;;;15.18;nan;99753.84;5034443;28;20267;-77
2023/09/29 04:58:56;;;;;;;5.78;4.45;;;;;;;15.19;nan;99756.34;5032471;28;20260;-77
2023/09/29 05:01:24;;;;;;;8.90;5.23;;;;;;;15.19;nan;99755.50;5027587;28;20281;-77
2023/09/29 05:03:51;;;;;;;5.00;4.32;;;;;;;15.19;nan;99753.69;5028900;28;20569;-77
2023/09/29 05:06:16;;;;;;;7.75;5.18;;;;;;;15.17;nan;99752.97;5037722;28;20183;-77
2023/09/29 05:08:44;;;;;;;5.73;5.13;;;;;;;15.17;nan;99754.78;5037900;28;20234;-78
2023/09/29 05:11:19;;;;;;;7.70;5.93;;;;;;;15.15;nan;99756.69;5037588;28;20523;-78
2023/09/29 05:13:45;;;;;;;7.97;5.43;;;;;;;15.14;nan;99761.16;5030733;28;20211;-78
2023/09/29 05:16:10;;;;;;;7.10;4.70;;;;;;;15.14;nan;99765.63;5007841;28;20259;-77
2023/09/29 05:18:36;;;;;;;6.60;4.73;;;;;;;15.12;nan;99763.09;5007333;28;20207;-77
2023/09/29 05:21:01;;;;;;;6.43;4.50;;;;;;;15.09;nan;99765.13;5006141;28;20208;-78
2023/09/29 05:23:26;;;;;;;6.10;4.40;;;;;;;15.06;nan;99768.88;5005794;28;20204;-77
2023/09/29 05:25:52;;;;;;;5.43;4.30;;;;;;;15.00;nan;99770.19;5006483;28;20222;-77
2023/09/29 05:28:18;;;;;;;8.20;4.80;;;;;;;14.99;nan;99768.53;5005887;28;20200;-78
2023/09/29 05:30:53;;;;;;;7.87;4.87;;;;;;;14.99;nan;99768.53;5001118;28;20462;-77
2023/09/29 05:33:19;;;;;;;5.22;4.47;;;;;;;14.99;nan;99772.97;5001784;28;20195;-78
2023/09/29 05:35:46;;;;;;;8.57;5.20;;;;;;;15.00;nan;99764.91;5003010;28;20189;-78
2023/09/29 05:38:11;;;;;;;6.55;5.00;;;;;;;14.97;nan;99764.31;5004396;28;20183;-78
2023/09/29 05:40:38;;;;;;;10.80;4.90;;;;;;;14.96;nan;99757.31;5002499;28;20258;-78
2023/09/29 05:43:04;;;;;;;4.85;4.35;;;;;;;14.97;nan;99769.59;5003958;28;20265;-77
2023/09/29 05:45:30;;;;;;;4.93;4.43;;;;;;;14.99;nan;99767.69;5004279;28;20210;-78
2023/09/29 05:47:56;;;;;;;7.77;5.03;;;;;;;15.01;nan;99771.03;5002924;28;20203;-77
2023/09/29 05:50:21;;;;;;;7.45;4.30;;;;;;;15.03;nan;99775.25;5003132;28;20233;-77
2023/09/29 05:52:47;;;;;;;7.00;5.30;;;;;;;15.05;nan;99772.50;5001258;28;20731;-78
2023/09/29 05:55:13;;;;;;;6.35;5.35;;;;;;;15.01;nan;99785.13;5003071;28;20706;-78
2023/09/29 05:57:38;;;;;;;5.77;4.60;;;;;;;15.00;nan;99785.22;5000825;28;20516;-77
2023/09/29 06:00:06;;;;;;;6.63;6.03;;;;;;;15.03;nan;99785.81;5002158;28;20516;-78
2023/09/29 06:02:31;;;;;;;6.43;4.88;;;;;;;15.07;nan;99789.09;5001337;28;20657;-77
2023/09/29 06:04:56;;;;;;;8.20;5.77;;;;;;;15.14;nan;99781.47;5002647;28;20449;-77
2023/09/29 06:07:22;;;;;;;6.10;4.43;;;;;;;15.17;nan;99782.06;5004714;28;20204;-78
2023/09/29 06:09:48;;;;;;;5.60;5.10;;;;;;;15.22;nan;99784.34;5002648;28;20750;-77
2023/09/29 06:12:16;;;;;;;5.40;4.73;;;;;;;15.24;nan;99782.44;5002384;28;20454;-77
2023/09/29 06:14:41;;;;;;;9.05;5.35;;;;;;;15.26;nan;99786.66;5016315;28;20241;-79
2023/09/29 06:17:06;;;;;;;7.33;4.50;;;;;;;15.31;nan;99794.22;5032732;28;20436;-77
2023/09/29 06:19:32;;;;;;;4.90;4.37;;;;;;;15.36;nan;99799.13;5033449;28;20690;-78
2023/09/29 06:21:57;;;;;;;10.30;4.93;;;;;;;15.39;nan;99797.09;5028166;28;20214;-78
2023/09/29 06:24:23;;;;;;;8.53;4.60;;;;;;;15.47;nan;99801.75;5038106;28;20274;-77
2023/09/29 06:26:48;;;;;;;5.73;4.00;;;;;;;15.58;nan;99807.03;5037933;28;20201;-77
2023/09/29 06:29:13;;;;;;;7.40;4.43;;;;;;;15.69;nan;99806.19;5033046;28;20782;-77
2023/09/29 06:31:39;;;;;;;5.40;4.90;;;;;;;15.82;nan;99809.50;5029418;28;20471;-79
2023/09/29 06:34:04;;;;;;;5.17;4.67;;;;;;;15.97;nan;99807.41;5030578;28;20671;-78
2023/09/29 06:36:30;;;;;;;4.57;4.20;;;;;;;16.14;nan;99811.28;5030754;28;20203;-78
2023/09/29 06:38:56;;;;;;;5.23;4.70;;;;;;;16.30;nan;99813.50;5031848;28;20198;-79
2023/09/29 06:41:23;;;;;;;6.38;4.88;;;;;;;16.41;nan;99820.53;5037019;28;20226;-80
2023/09/29 06:43:49;;;;;;;6.47;4.80;;;;;;;16.48;nan;99811.94;5035342;28;20195;-78
2023/09/29 06:46:15;;;;;;;6.97;4.80;;;;;;;16.51;nan;99818.78;5032281;28;20215;-79
2023/09/29 06:48:41;;;;;;;8.00;5.90;;;;;;;16.50;nan;99809.13;5038743;28;20203;-79
2023/09/29 06:51:07;;;;;;;5.30;4.80;;;;;;;16.47;nan;99812.91;5038992;28;20213;-79
2023/09/29 06:53:33;;;;;;;5.25;4.40;;;;;;;16.45;nan;99808.72;5044019;28;20192;-80
2023/09/29 06:55:59;;;;;;;4.63;4.03;;;;;;;16.43;nan;99806.19;5041877;28;20207;-80
2023/09/29 06:58:24;;;;;;;6.03;4.13;;;;;;;16.44;nan;99804.38;5045080;28;20195;-78
2023/09/29 07:00:51;;;;;;;5.87;5.30;;;;;;;16.46;nan;99800.63;5044176;28;20266;-78
2023/09/29 07:03:18;;;;;;;5.78;4.90;;;;;;;16.53;nan;99801.78;5036295;28;20213;-82
2023/09/29 07:05:46;;;;;;;6.88;5.10;;;;;;;16.61;nan;99801.13;5035967;28;20637;-83
2023/09/29 07:08:12;;;;;;;5.38;4.88;;;;;;;16.70;nan;99802.16;5029843;28;20203;-83
2023/09/29 07:10:37;;;;;;;8.98;4.53;;;;;;;16.78;nan;99820.94;5038114;28;20202;-82
2023/09/29 07:13:03;;;;;;;7.50;5.70;;;;;;;16.90;nan;99821.66;5026224;28;20207;-81
2023/09/29 07:15:29;;;;;;;5.37;4.53;;;;;;;17.00;nan;99818.09;5030480;28;20240;-83
2023/09/29 07:17:54;;;;;;;11.73;6.03;;;;;;;17.09;nan;99813.78;5025943;28;20285;-82
2023/09/29 07:20:21;;;;;;;8.33;5.77;;;;;;;17.19;nan;99813.81;5021832;28;20195;-83
2023/09/29 07:22:46;;;;;;;5.75;4.82;;;;;;;17.27;nan;99816.66;5038642;28;20314;-83
2023/09/29 07:25:14;;;;;;;5.87;4.60;;;;;;;17.37;nan;99822.00;5032120;28;20311;-82
2023/09/29 07:27:39;;;;;;;10.07;5.30;;;;;;;17.47;nan;99820.19;5034911;28;20208;-83
2023/09/29 07:30:09;;;;;;;5.50;4.50;;;;;;;17.54;nan;99823.97;5027427;28;20205;-83
2023/09/29 07:32:34;;;;;;;5.23;3.90;;;;;;;17.63;nan;99815.19;5032135;28;20204;-82
2023/09/29 07:35:00;;;;;;;6.23;4.80;;;;;;;17.74;nan;99821.34;5030081;28;20459;-84
2023/09/29 07:37:26;;;;;;;8.03;5.67;;;;;;;17.85;nan;99808.81;5018832;28;20514;-82
2023/09/29 07:39:51;;;;;;;8.23;4.57;;;;;;;17.99;nan;99809.38;5026974;28;20491;-83
2023/09/29 07:42:17;;;;;;;4.60;4.20;;;;;;;18.11;nan;99813.56;5025994;28;20195;-84
2023/09/29 07:44:43;;;;;;;6.13;4.53;;;;;;;18.26;nan;99811.31;5016530;28;20596;-83
2023/09/29 07:47:08;;;;;;;5.90;4.27;;;;;;;18.40;nan;99812.69;5012911;28;20183;-84
2023/09/29 07:49:40;;;;;;;5.83;5.30;;;;;;;18.54;nan;99812.22;5028189;28;20225;-84
2023/09/29 07:52:06;;;;;;;8.73;5.10;;;;;;;18.93;nan;99809.47;5029204;28;20264;-76
2023/09/29 07:54:31;;;;;;;4.73;3.93;;;;;;;19.80;nan;99802.84;5028819;28;20994;-84
2023/09/29 07:56:57;;;;;;;8.23;4.73;;;;;;;20.87;nan;99801.78;5019143;28;20830;-83
2023/09/29 07:59:22;;;;;;;6.07;4.17;;;;;;;22.03;nan;99804.66;5025427;28;20550;-84
2023/09/29 08:01:49;;;;;;;4.90;3.77;;;;;;;23.14;nan;99793.28;5013705;28;20212;-84
2023/09/29 08:04:16;;;;;;;4.20;3.37;;;;;;;24.25;nan;99786.72;5015407;28;20288;-84
2023/09/29 08:06:41;;;;;;;3.83;3.37;;;;;;;25.16;nan;99780.19;5017159;28;20657;-87
2023/09/29 08:09:08;;;;;;;3.43;2.93;;;;;;;25.77;nan;99787.09;5019195;28;20520;-85
2023/09/29 08:11:34;;;;;;;4.17;3.20;;;;;;;26.20;nan;99784.41;5030080;28;20423;-86
2023/09/29 08:13:59;;;;;;;4.80;3.17;;;;;;;26.57;nan;99779.72;5029058;28;20419;-84
2023/09/29 08:16:24;;;;;;;5.30;3.30;;;;;;;27.08;nan;99787.44;5025985;28;20248;-85
2023/09/29 08:18:50;;;;;;;4.27;3.60;;;;;;;27.69;nan;99787.47;5028541;28;20232;-84
2023/09/29 08:21:15;;;;;;;3.57;3.27;;;;;;;28.30;nan;99794.63;5025036;28;20184;-85
2023/09/29 08:23:41;;;;;;;4.67;3.13;;;;;;;28.88;nan;99791.22;5019953;28;20684;-86
2023/09/29 08:26:06;;;;;;;3.73;3.40;;;;;;;29.25;nan;99797.78;5019302;28;20181;-86
2023/09/29 08:28:32;;;;;;;5.17;3.10;;;;;;;29.58;nan;99798.66;5027391;28;20605;-84
2023/09/29 08:30:57;;;;;;;4.13;3.10;;;;;;;29.77;nan;99800.44;5020909;28;20194;-85
2023/09/29 08:33:27;;;;;;;4.30;3.90;;;;;;;29.96;nan;99798.66;5032085;28;20235;-86
2023/09/29 08:35:55;;;;;;;3.67;3.28;;;;;;;30.07;nan;99797.94;5021895;28;20655;-86
2023/09/29 08:38:22;;;;;;;5.30;3.40;;;;;;;30.25;nan;99793.66;5021845;28;20197;-84
2023/09/29 08:40:54;;;;;;;3.90;2.83;;;;;;;30.46;nan;99793.25;5023338;28;20453;-85
2023/09/29 08:43:20;;;;;;;3.70;2.73;;;;;;;30.51;nan;99785.25;5022094;28;20918;-85
2023/09/29 08:45:48;;;;;;;2.60;2.27;;;;;;;30.40;nan;99794.94;5026259;28;20477;-85
2023/09/29 08:48:15;;;;;;;6.90;3.57;;;;;;;30.49;nan;99787.38;5028849;28;20289;-85
2023/09/29 08:50:41;;;;;;;2.70;2.50;;;;;;;30.56;nan;99790.84;5025199;28;20468;-85
2023/09/29 08:53:10;;;;;;;4.03;3.57;;;;;;;30.77;nan;99777.91;5026519;28;20558;-84
2023/09/29 08:55:40;;;;;;;4.20;2.87;;;;;;;30.94;nan;99780.88;5027672;28;20456;-85
2023/09/29 08:58:07;;;;;;;2.87;2.33;;;;;;;30.94;nan;99784.41;5024438;28;21231;-84
2023/09/29 09:00:33;;;;;;;3.00;2.70;;;;;;;31.04;nan;99789.31;5023264;28;20511;-84
2023/09/29 09:03:00;;;;;;;3.37;2.23;;;;;;;30.94;nan;99792.56;5024536;28;20564;-84
2023/09/29 09:05:26;;;;;;;3.27;2.60;;;;;;;30.72;nan;99783.19;5025208;28;20545;-85
2023/09/29 09:07:54;;;;;;;4.03;2.90;;;;;;;30.48;nan;99784.88;5023377;28;20464;-84
2023/09/29 09:10:29;;;;;;;3.90;3.10;;;;;;;30.03;nan;99779.63;5025831;28;20206;-84
2023/09/29 09:12:55;;;;;;;2.90;2.60;;;;;;;29.67;nan;99790.06;5024791;28;20443;-84
2023/09/29 09:15:24;;;;;;;5.03;2.70;;;;;;;29.34;nan;99785.66;5026683;28;20434;-84
2023/09/29 09:17:50;;;;;;;2.90;2.60;;;;;;;29.11;nan;99783.47;5028097;28;21408;-84
2023/09/29 09:20:16;;;;;;;5.87;3.70;;;;;;;28.88;nan;99786.63;5027796;28;20483;-84
2023/09/29 09:22:42;;;;;;;4.10;3.10;;;;;;;28.68;nan;99794.00;5027879;28;20629;-86
2023/09/29 09:25:08;;;;;;;4.00;3.40;;;;;;;28.48;nan;99794.00;5027701;28;20510;-85
2023/09/29 09:27:41;;;;;;;3.53;2.90;;;;;;;28.28;nan;99796.69;5026291;28;20447;-84
2023/09/29 09:30:21;;;;;;;2.83;2.40;;;;;;;28.11;nan;99801.69;5025795;28;20446;-83
2023/09/29 09:32:47;;;;;;;3.43;3.13;;;;;;;27.99;nan;99795.25;5024705;28;20891;-78
2023/09/29 09:35:23;;;;;;;3.30;3.00;;;;;;;27.97;nan;99800.81;5023714;28;20528;-85
2023/09/29 09:37:51;;;;;;;3.07;2.80;;;;;;;27.98;nan;99804.38;5026177;28;20201;-84
2023/09/29 09:40:19;;;;;;;3.63;3.17;;;;;;;28.02;nan;99805.63;5029972;28;20965;-82
2023/09/29 09:42:46;;;;;;;2.90;2.60;;;;;;;28.05;nan;99812.47;5021057;28;20486;-84
2023/09/29 09:45:13;;;;;;;3.37;2.77;;;;;;;28.02;nan;99809.16;5024452;28;20478;-84
2023/09/29 09:47:40;;;;;;;4.63;2.80;;;;;;;28.05;nan;99807.91;5025750;28;20973;-85
2023/09/29 09:50:09;;;;;;;3.07;2.80;;;;;;;28.12;nan;99814.16;5025604;28;20430;-84
2023/09/29 09:52:35;;;;;;;3.80;2.93;;;;;;;28.13;nan;99814.97;5020658;28;21016;-85
2023/09/29 09:55:12;;;;;;;4.20;2.97;;;;;;;28.07;nan;99816.63;5027665;28;20563;-84
2023/09/29 09:57:45;;;;;;;5.43;2.90;;;;;;;28.02;nan;99813.72;5024281;28;20459;-84
2023/09/29 10:00:14;;;;;;;4.43;4.03;;;;;;;28.01;nan;99815.59;5033609;28;20997;-84
2023/09/29 10:02:51;;;;;;;6.23;2.80;;;;;;;28.06;nan;99809.59;5031460;28;20554;-84
2023/09/29 10:05:23;;;;;;;7.20;3.53;;;;;;;28.06;nan;99816.81;5035724;28;20455;-85
2023/09/29 10:07:51;;;;;;;4.33;2.63;;;;;;;28.11;nan;99817.91;5028607;28;20449;-82
2023/09/29 10:10:31;;;;;;;5.03;3.27;;;;;;;28.18;nan;99809.78;5035031;28;20494;-85
2023/09/29 10:12:58;;;;;;;4.90;2.73;;;;;;;28.27;nan;99813.94;5041486;28;20454;-84
2023/09/29 10:15:32;;;;;;;5.33;2.57;;;;;;;28.29;nan;99803.75;5044321;22;20586;-91
2023/09/29 10:18:36;;;;;;;3.70;3.07;;;;;;;28.38;nan;99805.22;5030235;28;20452;-91
2023/09/29 10:21:12;;;;;;;4.20;3.20;;;;;;;28.39;nan;99814.16;5038384;28;20444;-93
2023/09/29 10:23:51;;;;;;;3.00;2.50;;;;;;;28.42;nan;99802.94;5040448;28;20440;-91
2023/09/29 10:26:28;;;;;;;6.40;3.60;;;;;;;28.42;nan;99814.56;5040135;28;20700;-92
2023/09/29 10:29:19;;;;;;;5.67;2.97;;;;;;;28.41;nan;99812.09;5042127;28;20752;-91
2023/09/29 10:31:45;;;;;;;5.17;3.00;;;;;;;28.48;nan;99804.00;5041920;28;20464;-93
2023/09/29 10:34:26;;;;;;;4.67;2.80;;;;;;;28.55;nan;99802.94;5042973;28;20551;-91
2023/09/29 10:37:09;;;;;;;4.97;2.90;;;;;;;28.55;nan;99794.00;5025171;28;20460;-90
2023/09/29 10:39:50;;;;;;;4.90;3.20;;;;;;;28.55;nan;99810.22;5033069;28;20490;-94
2023/09/29 10:42:23;;;;;;;4.10;3.00;;;;;;;28.56;nan;99796.50;5017101;28;20482;-91
2023/09/29 10:44:54;;;;;;;3.70;3.40;;;;;;;28.55;nan;99792.13;5034665;28;20452;-90
2023/09/29 10:47:55;;;;;;;6.23;4.20;;;;;;;28.58;nan;99796.28;5034983;28;20444;-92
2023/09/29 10:50:31;;;;;;;3.53;3.10;;;;;;;28.63;nan;99799.19;5038683;28;20435;-91
2023/09/29 10:53:07;;;;;;;4.63;4.23;;;;;;;28.58;nan;99799.00;5023905;28;20971;-92
2023/09/29 10:55:47;;;;;;;7.20;3.37;;;;;;;28.47;nan;99795.06;5030596;28;20444;-90
2023/09/29 10:58:22;;;;;;;4.87;3.90;;;;;;;28.43;nan;99797.31;5030821;28;20439;-92
2023/09/29 11:01:01;;;;;;;3.60;2.97;;;;;;;28.43;nan;99791.91;5014509;28;20739;-92
2023/09/29 11:03:30;;;;;;;4.20;3.47;;;;;;;28.45;nan;99789.03;5027911;28;20529;-92
2023/09/29 11:06:24;;;;;;;4.93;3.03;;;;;;;28.50;nan;99791.09;5018806;28;20798;-93
2023/09/29 11:08:58;;;;;;;6.27;4.13;;;;;;;28.53;nan;99787.97;5038436;28;20452;-91
2023/09/29 11:11:42;;;;;;;4.60;3.60;;;;;;;28.55;nan;99784.03;5034720;28;21018;-91
2023/09/29 11:14:11;;;;;;;7.53;3.30;;;;;;;28.53;nan;99785.28;5019746;28;20440;-91
2023/09/29 11:16:54;;;;;;;4.00;3.70;;;;;;;28.47;nan;99783.44;5021645;28;20952;-92
2023/09/29 11:19:29;;;;;;;4.20;3.20;;;;;;;28.48;nan;99785.06;5026750;28;20508;-91
2023/09/29 11:21:55;;;;;;;4.07;3.77;;;;;;;28.50;nan;99789.22;5024452;28;20467;-92
2023/09/29 11:24:41;;;;;;;5.50;3.77;;;;;;;28.54;nan;99781.53;5020913;28;20440;-91
2023/09/29 11:27:06;;;;;;;4.07;3.67;;;;;;;28.53;nan;99771.75;5033064;28;20436;-91
2023/09/29 11:29:38;;;;;;;6.30;3.60;;;;;;;28.53;nan;99769.88;5026147;28;20905;-91
2023/09/29 11:32:04;;;;;;;5.87;3.97;;;;;;;28.55;nan;99773.22;5027553;28;20257;-92
2023/09/29 11:34:31;;;;;;;4.30;3.90;;;;;;;28.55;nan;99781.31;5026867;28;20605;-90
2023/09/29 11:36:57;;;;;;;3.13;2.77;;;;;;;28.51;nan;99771.97;5020219;28;20288;-91
2023/09/29 11:39:22;;;;;;;5.80;4.37;;;;;;;28.44;nan;99772.00;5019934;28;20443;-93
2023/09/29 11:41:48;;;;;;;7.37;3.53;;;;;;;28.43;nan;99767.59;5020756;28;20472;-91
2023/09/29 11:44:17;;;;;;;7.10;3.50;;;;;;;28.38;nan;99775.50;5019659;28;20194;-91
2023/09/29 11:46:42;;;;;;;7.07;4.37;;;;;;;28.38;nan;99763.84;5021141;28;21058;-88
2023/09/29 11:49:08;;;;;;;5.30;4.00;;;;;;;28.38;nan;99759.28;5002314;28;20448;-90
2023/09/29 11:51:37;;;;;;;7.70;4.10;;;;;;;28.39;nan;99752.84;5022216;28;20213;-88
2023/09/29 11:54:04;;;;;;;5.40;3.60;;;;;;;28.43;nan;99750.56;5023625;28;20535;-89